Latest Coastal Weather Observations for Port Kembla Harbour

IDN60701

Issued at 12:32 pm EST Friday 1 July 2016 (issued every 10 minutes, with the page automatically refreshed every 10 minutes)

About coastal observations | Map of coastal stations | Coastal observations for NSW | Marine services | Other Formats
Station Details ID: 068253 Name: PORT KEMBLA NTC AWS Lat: -34.47 Lon: 150.91 Height: 0.0 m
Data from the previous 72 hours. | See also: Recent months for locations in New South Wales
Date/Time
EST
Temp
°C
Wind Pressure Rain since
9am
mm
Weather Cloud Vis
km
Sea
Height
m
Swell
Dir  Spd
kts
Gust
kts
hPa Trend Height
m
Period
s
Dir
01/12:30pm 14.3 WSW 15 21 1014.8 - - - - - - - - -
01/12:00pm 14.3 WSW 16 22 1015.0 - - - - - - - - -
01/11:30am 14.0 WSW 16 24 1014.9 - - - - - - - - -
01/11:00am 13.8 W 18 26 1014.9 - - - - - - - - -
01/10:30am 13.2 W 20 29 1014.7 - - - - - - - - -
01/10:00am 13.2 W 20 33 1014.4 - - - - - - - - -
01/09:30am 12.6 W 19 29 1014.1 - - - - - - - - -
01/09:25am 12.5 W 19 29 1014.1 - - - - - - - - -
01/09:00am 12.0 W 15 23 1014.0 - - - - - - - - -
01/08:31am 11.5 W 15 26 1013.6 - - - - - - - - -
01/08:30am 11.5 W 16 26 1013.6 - - - - - - - - -
01/08:09am 11.2 W 16 27 1013.6 - - - - - - - - -
01/08:00am 11.0 W 17 24 1013.6 - - - - - - - - -
01/07:30am 11.0 W 19 29 1013.4 - - - - - - - - -
01/07:05am 10.7 W 17 30 1013.3 - - - - - - - - -
01/07:00am 10.4 W 14 21 1013.3 - - - - - - - - -
01/06:30am 10.0 WSW 12 22 1013.4 - - - - - - - - -
01/06:00am 10.2 W 15 24 1012.6 - - - - - - - - -
01/05:30am 10.5 W 12 21 1012.7 - - - - - - - - -
01/05:00am 10.6 W 13 17 1012.8 - - - - - - - - -
01/04:30am 11.5 WNW 18 27 1011.9 - - - - - - - - -
01/04:24am 11.4 WNW 18 27 1011.4 - - - - - - - - -
01/04:00am 11.4 W 9 14 1012.0 - - - - - - - - -
01/03:30am 11.9 NW 8 12 1012.1 - - - - - - - - -
01/03:00am 11.1 W 6 10 1012.7 - - - - - - - - -
01/02:30am 11.8 NW 10 16 1012.3 - - - - - - - - -
01/02:00am 12.5 NW 12 15 1011.9 - - - - - - - - -
01/01:30am 13.0 NW 19 24 1011.6 - - - - - - - - -
01/01:00am 13.3 NW 16 20 1011.2 - - - - - - - - -
01/12:30am 13.1 NW 9 14 1011.6 - - - - - - - - -
01/12:00am 12.9 NW 10 16 1012.1 - - - - - - - - -
 
Date/Time
EST
Temp
°C
Wind Pressure Rain since
9am
mm
Weather Cloud Vis
km
Sea
Height
m
Swell
Dir  Spd
kts
Gust
kts
hPa Trend Height
m
Period
s
Dir
30/11:30pm 12.9 N 3 6 1012.6 - - - - - - - - -
30/11:00pm 12.7 N 4 14 1012.5 - - - - - - - - -
30/10:30pm 13.1 NNE 10 15 1012.8 - - - - - - - - -
30/10:00pm 13.7 NNE 8 15 1013.3 - - - - - - - - -
30/09:30pm 13.5 N 6 10 1013.6 - - - - - - - - -
30/09:00pm 13.7 NNW 8 15 1014.0 - - - - - - - - -
30/08:30pm 13.7 NNW 8 13 1014.3 - - - - - - - - -
30/08:00pm 14.0 NNW 10 14 1014.3 - - - - - - - - -
30/07:30pm 14.1 NNW 9 15 1014.2 - - - - - - - - -
30/07:00pm 13.9 N 6 9 1014.5 - - - - - - - - -
30/06:30pm 14.1 N 7 9 1014.4 - - - - - - - - -
30/06:00pm 14.2 N 7 11 1014.1 - - - - - - - - -
30/05:30pm 14.3 NNW 9 13 1013.8 - - - - - - - - -
30/05:00pm 13.8 N 3 6 1013.9 - - - - - - - - -
30/04:30pm 13.8 WNW 5 7 1014.0 - - - - - - - - -
30/04:00pm 14.1 NNW 10 13 1013.9 - - - - - - - - -
30/03:30pm 14.8 NNW 9 12 1013.9 - - - - - - - - -
30/03:00pm 15.1 NNW 9 11 1013.8 - - - - - - - - -
30/02:30pm 15.6 NNW 8 13 1014.1 - - - - - - - - -
30/02:00pm 16.2 NW 12 15 1014.2 - - - - - - - - -
30/01:30pm 16.5 NW 11 15 1014.4 - - - - - - - - -
30/01:00pm 16.1 NNE 11 17 1014.9 - - - - - - - - -
30/12:30pm 15.8 NNE 9 12 1015.7 - - - - - - - - -
30/12:00pm 15.9 NNE 8 11 1016.4 - - - - - - - - -
30/11:30am 15.9 N 7 11 1017.2 - - - - - - - - -
30/11:00am 15.5 NNE 6 12 1017.8 - - - - - - - - -
30/10:30am 15.3 NNE 4 7 1018.5 - - - - - - - - -
30/10:00am 14.8 NNW 3 5 1018.7 - - - - - - - - -
30/09:30am 13.8 NW 5 7 1019.1 - - - - - - - - -
30/09:00am 12.9 W 6 8 1019.4 - - - - - - - - -
30/08:30am 12.2 W 5 8 1019.5 - - - - - - - - -
30/08:00am 11.9 W 6 7 1019.5 - - - - - - - - -
30/07:30am 11.2 WSW 3 4 1019.4 - - - - - - - - -
30/07:00am 11.8 WSW 3 6 1019.6 - - - - - - - - -
30/06:30am 13.2 NW 8 11 1019.6 - - - - - - - - -
30/06:00am 12.7 WNW 6 8 1019.8 - - - - - - - - -
30/05:30am 12.6 NW 6 7 1020.0 - - - - - - - - -
30/05:00am 12.9 NNW 5 7 1020.1 - - - - - - - - -
30/04:30am 13.0 NNW 6 9 1020.2 - - - - - - - - -
30/04:00am 13.1 NNW 8 10 1020.4 - - - - - - - - -
30/03:30am 13.7 NNW 9 12 1020.7 - - - - - - - - -
30/03:00am 13.9 N 5 9 1021.2 - - - - - - - - -
30/02:30am 14.1 N 7 11 1021.7 - - - - - - - - -
30/02:00am 14.0 NNW 8 11 1022.0 - - - - - - - - -
30/01:30am 14.0 NNW 7 10 1022.3 - - - - - - - - -
30/01:00am 13.8 NNW 6 8 1022.6 - - - - - - - - -
30/12:30am 13.9 NNW 9 11 1022.7 - - - - - - - - -
30/12:00am 12.0 W 3 5 1023.2 - - - - - - - - -
 
Date/Time
EST
Temp
°C
Wind Pressure Rain since
9am
mm
Weather Cloud Vis
km
Sea
Height
m
Swell
Dir  Spd
kts
Gust
kts
hPa Trend Height
m
Period
s
Dir
29/11:30pm 11.6 WSW 5 7 1023.5 - - - - - - - - -
29/11:00pm 11.3 WSW 3 3 1023.9 - - - - - - - - -
29/10:30pm 11.4 WSW 4 5 1024.2 - - - - - - - - -
29/10:00pm 11.1 WSW 3 4 1024.4 - - - - - - - - -
29/09:30pm 11.4 WSW 3 4 1024.6 - - - - - - - - -
29/09:00pm 11.2 SW 4 5 1024.8 - - - - - - - - -
29/08:30pm 11.6 W 4 5 1025.0 - - - - - - - - -
29/08:00pm 11.9 WSW 4 4 1025.1 - - - - - - - - -
29/07:30pm 12.0 WSW 4 5 1025.1 - - - - - - - - -
29/07:00pm 12.5 WSW 3 3 1025.0 - - - - - - - - -
29/06:30pm 13.1 WSW 3 3 1025.1 - - - - - - - - -
29/06:00pm 13.7 WSW 3 4 1024.9 - - - - - - - - -
29/05:30pm 16.0 ESE 2 3 1024.8 - - - - - - - - -
29/05:00pm 16.3 SE 2 5 1024.8 - - - - - - - - -
29/04:30pm 16.4 SE 3 6 1024.8 - - - - - - - - -
29/04:00pm 16.5 SE 3 5 1024.9 - - - - - - - - -
29/03:30pm 16.5 SE 4 7 1024.9 - - - - - - - - -
29/03:00pm 16.5 SE 5 7 1024.8 - - - - - - - - -
29/02:30pm 16.7 SE 6 10 1024.6 - - - - - - - - -
29/02:00pm 16.5 SE 6 9 1024.8 - - - - - - - - -
29/01:30pm 16.6 SE 5 8 1025.0 - - - - - - - - -
29/01:00pm 16.4 SE 7 10 1025.2 - - - - - - - - -
29/12:30pm 16.2 SE 5 7 1025.7 - - - - - - - - -
29/12:00pm 16.0 SE 5 7 1026.0 - - - - - - - - -
29/11:30am 16.0 SE 5 7 1026.3 - - - - - - - - -
29/11:00am 16.0 NE 3 3 1026.7 - - - - - - - - -
29/10:30am 17.9 CALM 0 1 1027.1 - - - - - - - - -
29/10:00am 15.0 SW 3 4 1027.3 - - - - - - - - -
29/09:30am 14.1 SW 3 5 1027.3 - - - - - - - - -
29/09:00am 12.8 SW 2 3 1027.0 - - - - - - - - -
29/08:30am 11.8 WSW 5 6 1026.8 - - - - - - - - -
29/08:00am 10.9 WSW 4 5 1026.6 - - - - - - - - -
29/07:30am 10.4 W 5 6 1026.5 - - - - - - - - -
29/07:00am 10.5 W 4 5 1026.3 - - - - - - - - -
29/06:30am 10.4 W 7 8 1026.1 - - - - - - - - -
29/06:00am 11.0 W 7 9 1025.9 - - - - - - - - -
29/05:30am 11.0 W 9 11 1025.7 - - - - - - - - -
29/05:00am 10.4 W 7 8 1025.5 - - - - - - - - -
29/04:30am 10.6 W 7 9 1025.4 - - - - - - - - -
29/04:00am 10.9 W 7 8 1025.2 - - - - - - - - -
29/03:30am 11.0 W 9 11 1025.3 - - - - - - - - -
29/03:00am 10.8 W 11 13 1025.4 - - - - - - - - -
29/02:30am 10.8 W 9 11 1025.6 - - - - - - - - -
29/02:00am 10.8 W 10 12 1025.6 - - - - - - - - -
29/01:30am 10.8 W 10 13 1025.8 - - - - - - - - -
29/01:00am 10.9 W 9 11 1025.7 - - - - - - - - -
29/12:30am 10.6 W 9 11 1025.9 - - - - - - - - -
29/12:00am 10.9 W 10 12 1026.2 - - - - - - - - -
 
Date/Time
EST
Temp
°C
Wind Pressure Rain since
9am
mm
Weather Cloud Vis
km
Sea
Height
m
Swell
Dir  Spd
kts
Gust
kts
hPa Trend Height
m
Period
s
Dir
28/11:30pm 10.9 W 11 12 1026.3 - - - - - - - - -
28/11:00pm 11.0 W 10 12 1026.3 - - - - - - - - -

Other Formats:

Comma delimited format used in spreadsheet applications
http://www.bom.gov.au/fwo/IDN60701/IDN60701.95745.axf

JavaScript Object Notation format (JSON) in row-major order
http://www.bom.gov.au/fwo/IDN60701/IDN60701.95745.json